createdAt,value
2022-10-28T00:01:58.564Z,33.70
2022-10-28T00:07:08.170Z,37.20
2022-10-28T00:09:40.545Z,34.50
2022-10-28T00:12:12.827Z,39.80
2022-10-28T00:14:44.997Z,36.80
2022-10-28T00:17:17.317Z,40.00
2022-10-28T00:19:49.582Z,39.70
2022-10-28T00:22:21.829Z,35.50
2022-10-28T00:24:54.158Z,39.70
2022-10-28T00:27:26.396Z,35.70
2022-10-28T00:29:58.590Z,36.80
2022-10-28T00:32:33.057Z,35.70
2022-10-28T00:35:05.615Z,38.20
2022-10-28T00:37:37.965Z,36.20
2022-10-28T00:40:12.287Z,35.40
2022-10-28T00:42:44.497Z,30.50
2022-10-28T00:45:16.769Z,31.70
2022-10-28T00:47:55.794Z,27.80
2022-10-28T00:50:45.139Z,31.90
2022-10-28T00:53:20.893Z,34.60
2022-10-28T00:55:54.127Z,34.50
2022-10-28T00:58:27.945Z,32.40
2022-10-28T01:01:00.273Z,29.30
2022-10-28T01:03:32.696Z,28.20
2022-10-28T01:06:05.141Z,24.40
2022-10-28T01:08:37.745Z,29.20
2022-10-28T01:11:19.849Z,32.90
2022-10-28T01:14:03.011Z,33.90
2022-10-28T01:16:42.001Z,28.30
2022-10-28T01:19:37.161Z,24.50
2022-10-28T01:22:16.982Z,22.60
2022-10-28T01:25:09.730Z,19.70
2022-10-28T01:28:01.989Z,27.10
2022-10-28T01:30:41.060Z,21.90
2022-10-28T01:33:18.545Z,22.70
2022-10-28T01:35:53.647Z,23.70
2022-10-28T01:38:32.018Z,22.10
2022-10-28T01:41:11.249Z,26.70
2022-10-28T01:43:48.722Z,23.30
2022-10-28T01:46:23.436Z,23.20
2022-10-28T01:48:58.048Z,21.60
2022-10-28T01:51:33.799Z,21.20
2022-10-28T01:54:08.050Z,21.60
2022-10-28T01:56:42.970Z,18.70
2022-10-28T01:59:18.205Z,17.50
2022-10-28T02:01:50.720Z,19.60
2022-10-28T02:04:22.996Z,19.30
2022-10-28T02:06:57.276Z,18.30
2022-10-28T02:09:39.220Z,20.40
2022-10-28T02:12:23.777Z,24.50
2022-10-28T02:15:19.874Z,19.30
2022-10-28T02:18:01.445Z,19.90
2022-10-28T02:20:43.239Z,16.10
2022-10-28T02:23:21.618Z,18.80
2022-10-28T02:25:58.581Z,19.10
2022-10-28T02:28:37.947Z,19.50
2022-10-28T02:31:15.541Z,21.70
2022-10-28T02:33:51.175Z,18.80
2022-10-28T02:36:26.137Z,20.10
2022-10-28T02:39:00.441Z,19.20
2022-10-28T02:41:34.961Z,17.30
2022-10-28T02:44:10.303Z,19.40
2022-10-28T02:46:44.508Z,18.40
2022-10-28T02:49:17.830Z,14.50
2022-10-28T02:51:53.585Z,12.70
2022-10-28T02:54:27.744Z,10.80
2022-10-28T02:57:03.969Z,12.10
2022-10-28T02:59:36.505Z,16.10
2022-10-28T03:02:08.928Z,15.60
2022-10-28T03:07:11.937Z,11.10
2022-10-28T03:09:44.291Z,12.60
2022-10-28T03:12:16.481Z,11.90
2022-10-28T03:14:48.796Z,18.50
2022-10-28T03:17:21.127Z,14.00
2022-10-28T03:19:53.302Z,13.40
2022-10-28T03:22:25.495Z,11.20
2022-10-28T03:24:58.344Z,15.60
2022-10-28T03:27:30.919Z,13.70
2022-10-28T03:32:33.819Z,12.70
2022-10-28T03:35:06.978Z,13.40
2022-10-28T03:37:39.410Z,12.60
2022-10-28T03:40:13.526Z,13.20
2022-10-28T03:42:45.859Z,14.10
2022-10-28T03:45:18.446Z,11.80
2022-10-28T03:47:51.074Z,12.50
2022-10-28T03:52:54.067Z,10.20
2022-10-28T03:55:27.649Z,13.00
2022-10-28T03:58:03.469Z,14.30
2022-10-28T04:00:36.117Z,11.40
2022-10-28T04:03:08.319Z,12.90
2022-10-28T04:05:40.552Z,16.20
2022-10-28T04:08:12.718Z,12.70
2022-10-28T04:10:47.282Z,15.90
2022-10-28T04:13:20.021Z,17.30
2022-10-28T04:15:52.342Z,15.30
2022-10-28T04:18:24.896Z,16.20
2022-10-28T04:20:57.314Z,11.80
2022-10-28T04:23:29.914Z,14.30
2022-10-28T04:26:02.189Z,16.50
2022-10-28T04:28:34.397Z,10.30
2022-10-28T04:31:06.874Z,15.30
2022-10-28T04:33:39.302Z,18.00
2022-10-28T04:36:11.950Z,12.20
2022-10-28T04:41:15.634Z,14.80
2022-10-28T04:43:47.954Z,13.60
2022-10-28T04:46:20.248Z,11.10
2022-10-28T04:48:52.524Z,12.20
2022-10-28T04:51:24.778Z,16.10
2022-10-28T04:53:57.108Z,11.40
2022-10-28T04:56:31.181Z,15.30
2022-10-28T04:59:03.444Z,10.60
2022-10-28T05:01:35.863Z,13.50
2022-10-28T05:04:08.469Z,11.10
2022-10-28T05:06:40.727Z,15.50
2022-10-28T05:09:13.045Z,15.70
2022-10-28T05:11:45.290Z,12.50
2022-10-28T05:14:17.453Z,15.00
2022-10-28T05:16:49.799Z,23.50
2022-10-28T05:19:22.073Z,14.50
2022-10-28T05:21:54.375Z,15.10
2022-10-28T05:24:28.276Z,14.40
2022-10-28T05:27:01.979Z,21.20
2022-10-28T05:29:34.089Z,18.50
2022-10-28T05:32:06.449Z,13.00
2022-10-28T05:37:09.714Z,14.90
2022-10-28T05:39:41.816Z,14.70
2022-10-28T05:42:14.068Z,18.50
2022-10-28T05:44:46.387Z,15.10
2022-10-28T05:47:19.029Z,16.50
2022-10-28T05:49:51.253Z,13.50
2022-10-28T05:52:23.448Z,16.10
2022-10-28T05:54:55.624Z,16.40
2022-10-28T05:57:27.833Z,16.00
2022-10-28T05:59:59.946Z,14.80
2022-10-28T06:02:32.150Z,17.40
2022-10-28T06:05:04.295Z,16.30
2022-10-28T06:07:36.522Z,17.30
2022-10-28T06:10:11.259Z,15.30
2022-10-28T06:12:42.715Z,13.60
2022-10-28T06:15:14.984Z,16.60
2022-10-28T06:17:50.305Z,15.30
2022-10-28T06:20:22.402Z,20.30
2022-10-28T06:22:56.385Z,17.30
2022-10-28T06:25:28.913Z,19.70
2022-10-28T06:28:04.751Z,17.80
2022-10-28T06:30:38.019Z,15.50
2022-10-28T06:33:10.330Z,21.00
2022-10-28T06:35:42.413Z,19.20
2022-10-28T06:38:14.562Z,15.50
2022-10-28T06:40:49.054Z,17.30
2022-10-28T06:43:24.504Z,19.70
2022-10-28T06:45:56.806Z,24.30
2022-10-28T06:48:30.499Z,23.70
2022-10-28T06:51:02.808Z,20.80
2022-10-28T06:53:34.995Z,21.70
2022-10-28T06:56:07.889Z,20.00
2022-10-28T06:58:39.985Z,34.10
2022-10-28T07:01:13.005Z,20.80
2022-10-28T07:03:50.397Z,19.80
2022-10-28T07:08:53.203Z,15.10
2022-10-28T07:11:25.355Z,16.20
2022-10-28T07:13:57.515Z,18.80
2022-10-28T07:16:29.585Z,22.90
2022-10-28T07:19:01.658Z,21.00
2022-10-28T07:21:33.723Z,17.00
2022-10-28T07:24:06.074Z,19.00
2022-10-28T07:26:38.219Z,17.20
2022-10-28T07:29:10.324Z,16.90
2022-10-28T07:31:42.456Z,17.20
2022-10-28T07:34:14.566Z,21.10
2022-10-28T07:36:46.605Z,15.80
2022-10-28T07:39:18.709Z,19.70
2022-10-28T07:41:50.933Z,17.90
2022-10-28T07:44:23.203Z,19.40
2022-10-28T07:46:58.005Z,19.50
2022-10-28T07:49:31.059Z,19.40
2022-10-28T07:52:03.115Z,17.60
2022-10-28T07:54:35.198Z,19.20
2022-10-28T07:57:07.369Z,19.00
2022-10-28T07:59:39.458Z,23.00
2022-10-28T08:02:13.403Z,20.30
2022-10-28T08:04:45.758Z,24.30
2022-10-28T08:07:18.386Z,18.60
2022-10-28T08:12:20.826Z,23.00
2022-10-28T08:14:52.882Z,24.30
2022-10-28T08:17:25.077Z,18.70
2022-10-28T08:19:57.150Z,18.20
2022-10-28T08:22:29.256Z,22.10
2022-10-28T08:25:01.310Z,23.00
2022-10-28T08:27:33.478Z,17.00
2022-10-28T08:30:06.696Z,19.50
2022-10-28T08:32:38.759Z,22.70
2022-10-28T08:35:11.974Z,14.00
2022-10-28T08:37:46.285Z,17.60
2022-10-28T08:40:18.555Z,19.10
2022-10-28T08:42:53.124Z,17.90
2022-10-28T08:45:29.958Z,16.70
2022-10-28T08:48:14.122Z,25.40
2022-10-28T08:50:50.141Z,19.80
2022-10-28T08:53:25.304Z,21.10
2022-10-28T08:56:01.430Z,19.70
2022-10-28T08:58:35.982Z,19.70
2022-10-28T09:01:15.240Z,19.70
2022-10-28T09:03:49.074Z,20.50
2022-10-28T09:06:21.685Z,17.10
2022-10-28T09:08:53.801Z,15.00
2022-10-28T09:11:45.773Z,20.30
2022-10-28T09:14:28.024Z,17.00
2022-10-28T09:17:09.495Z,20.40
2022-10-28T09:19:48.566Z,21.80
2022-10-28T09:22:28.712Z,21.30
2022-10-28T09:25:04.428Z,22.00
2022-10-28T09:27:51.303Z,22.60
2022-10-28T09:30:32.301Z,18.90
2022-10-28T09:33:14.810Z,22.30
2022-10-28T09:35:48.820Z,19.10
2022-10-28T09:38:28.106Z,14.50
2022-10-28T09:41:02.903Z,18.60
2022-10-28T09:43:36.435Z,19.00
2022-10-28T09:46:12.207Z,15.70
2022-10-28T09:48:47.519Z,14.70
2022-10-28T09:51:28.434Z,22.90
2022-10-28T09:54:02.093Z,19.50
2022-10-28T09:56:34.618Z,24.00
2022-10-28T09:59:07.402Z,14.70
2022-10-28T10:01:41.683Z,18.40
2022-10-28T10:04:21.664Z,16.00
2022-10-28T10:06:56.190Z,11.30
2022-10-28T10:09:30.118Z,18.60
2022-10-28T10:12:06.835Z,16.00
2022-10-28T10:14:41.133Z,14.60
2022-10-28T10:17:17.406Z,16.90
2022-10-28T10:20:10.571Z,17.60
2022-10-28T10:22:44.034Z,13.90
2022-10-28T10:25:30.093Z,15.30
2022-10-28T10:28:05.106Z,15.90
2022-10-28T10:30:39.546Z,12.10
2022-10-28T10:33:20.682Z,14.80
2022-10-28T10:36:00.441Z,15.30
2022-10-28T10:38:33.156Z,14.80
2022-10-28T10:41:05.613Z,17.40
2022-10-28T10:43:40.068Z,11.70
2022-10-28T10:46:16.543Z,14.60
2022-10-28T10:48:48.685Z,12.10
2022-10-28T10:53:54.727Z,12.90
2022-10-28T10:56:29.819Z,18.10
2022-10-28T10:59:04.606Z,15.60
2022-10-28T11:01:39.520Z,16.90
2022-10-28T11:04:18.813Z,13.30
2022-10-28T11:06:54.875Z,13.40
2022-10-28T11:09:32.845Z,14.60
2022-10-28T11:12:17.459Z,13.80
2022-10-28T11:14:59.557Z,9.80
2022-10-28T11:20:31.272Z,7.40
2022-10-28T11:23:13.050Z,9.40
2022-10-28T11:25:47.145Z,13.50
2022-10-28T11:28:40.196Z,12.80
2022-10-28T11:31:25.461Z,11.70
2022-10-28T11:34:05.714Z,10.00
2022-10-28T11:36:41.189Z,9.10
2022-10-28T11:39:24.490Z,8.30
2022-10-28T11:42:08.363Z,9.70
2022-10-28T11:44:47.320Z,9.60
2022-10-28T11:47:41.805Z,12.50
2022-10-28T11:50:29.514Z,8.30
2022-10-28T11:53:37.273Z,10.30
2022-10-28T11:56:17.479Z,11.60
2022-10-28T11:58:57.608Z,9.50
2022-10-28T12:01:46.307Z,8.80
2022-10-28T12:04:32.725Z,10.60
2022-10-28T12:07:14.896Z,10.90
2022-10-28T12:09:58.932Z,8.00
2022-10-28T12:12:36.351Z,12.00
2022-10-28T12:15:20.815Z,6.20
2022-10-28T12:17:57.709Z,7.80
2022-10-28T12:20:34.455Z,10.30
2022-10-28T12:23:10.791Z,10.60
2022-10-28T12:25:45.340Z,7.80
2022-10-28T12:28:21.547Z,6.80
2022-10-28T12:30:54.503Z,9.40
2022-10-28T12:33:30.895Z,8.70
2022-10-28T12:36:19.326Z,10.30
2022-10-28T12:38:57.534Z,9.60
2022-10-28T12:41:45.094Z,13.90
2022-10-28T12:44:20.304Z,12.90
2022-10-28T12:46:58.410Z,9.70
2022-10-28T12:49:37.028Z,7.30
2022-10-28T12:52:14.935Z,10.40
2022-10-28T12:54:55.353Z,8.90
2022-10-28T12:57:28.523Z,7.70
2022-10-28T13:00:05.080Z,11.00
2022-10-28T13:02:42.208Z,9.20
2022-10-28T13:05:22.323Z,10.10
2022-10-28T13:08:07.377Z,11.80
2022-10-28T13:10:46.165Z,11.90
2022-10-28T13:13:41.853Z,8.70
2022-10-28T13:16:38.110Z,7.60
2022-10-28T13:19:46.955Z,7.10
2022-10-28T13:22:34.969Z,7.40
2022-10-28T13:25:19.046Z,6.80
2022-10-28T13:27:51.340Z,7.80
2022-10-28T13:30:24.031Z,7.80
2022-10-28T13:33:04.991Z,11.40
2022-10-28T13:35:37.466Z,7.60
2022-10-28T13:38:13.905Z,7.00
2022-10-28T13:41:20.900Z,10.90
2022-10-28T13:44:17.864Z,7.30
2022-10-28T13:47:27.503Z,8.20
2022-10-28T13:50:34.237Z,6.10
2022-10-28T13:53:42.177Z,6.50
2022-10-28T13:56:49.570Z,6.20
2022-10-28T13:59:33.886Z,9.10
2022-10-28T14:02:36.343Z,6.70
2022-10-28T14:05:11.089Z,9.70
2022-10-28T14:07:55.161Z,11.40
2022-10-28T14:10:28.930Z,8.80
2022-10-28T14:13:04.926Z,7.20
2022-10-28T14:15:38.846Z,13.60
2022-10-28T14:18:44.091Z,6.90
2022-10-28T14:21:15.956Z,9.40
2022-10-28T14:24:11.419Z,8.10
2022-10-28T14:27:31.258Z,9.40
2022-10-28T14:30:22.638Z,13.00
2022-10-28T14:33:11.497Z,11.20
2022-10-28T14:35:44.873Z,10.00
2022-10-28T14:38:57.294Z,11.10
2022-10-28T14:41:57.819Z,11.60
2022-10-28T14:44:55.663Z,5.60
2022-10-28T14:47:46.336Z,9.90
2022-10-28T14:50:21.717Z,10.90
2022-10-28T14:52:55.227Z,9.10
2022-10-28T14:55:30.675Z,12.90
2022-10-28T14:58:23.777Z,11.80
2022-10-28T15:01:06.475Z,8.90
2022-10-28T15:03:39.613Z,11.30
2022-10-28T15:06:27.637Z,9.80
2022-10-28T15:09:03.497Z,13.30
2022-10-28T15:11:36.233Z,9.80
2022-10-28T15:14:30.438Z,9.90
2022-10-28T15:17:12.983Z,7.00
2022-10-28T15:22:24.137Z,7.40
2022-10-28T15:25:01.350Z,10.90
2022-10-28T15:27:35.081Z,9.80
2022-10-28T15:30:15.027Z,14.10
2022-10-28T15:32:48.376Z,12.50
2022-10-28T15:35:41.324Z,9.60
2022-10-28T15:38:36.578Z,12.80
2022-10-28T15:41:43.738Z,13.40
2022-10-28T15:44:35.267Z,13.40
2022-10-28T15:47:19.117Z,12.30
2022-10-28T15:50:02.537Z,11.90
2022-10-28T15:52:38.169Z,10.30
2022-10-28T15:55:47.606Z,16.50
2022-10-28T15:58:39.296Z,22.60
2022-10-28T16:01:27.936Z,23.20
2022-10-28T16:04:02.238Z,15.00
2022-10-28T16:06:35.804Z,14.50
2022-10-28T16:09:22.235Z,18.60
2022-10-28T16:11:57.593Z,29.00
2022-10-28T16:14:37.792Z,15.10
2022-10-28T16:17:16.413Z,13.40
2022-10-28T16:19:53.172Z,20.30
2022-10-28T16:22:26.978Z,19.70
2022-10-28T16:24:59.451Z,10.10
2022-10-28T16:30:03.470Z,12.70
2022-10-28T16:32:38.466Z,16.20
2022-10-28T16:35:16.933Z,12.80
2022-10-28T16:37:54.755Z,13.10
2022-10-28T16:40:50.217Z,17.20
2022-10-28T16:43:21.341Z,14.90
2022-10-28T16:45:54.835Z,15.60
2022-10-28T16:48:28.940Z,18.90
2022-10-28T16:51:03.886Z,19.80
2022-10-28T16:53:36.622Z,16.50
2022-10-28T16:56:13.564Z,21.90
2022-10-28T16:58:47.166Z,24.60
2022-10-28T17:01:22.760Z,20.70
2022-10-28T17:03:54.951Z,21.90
2022-10-28T17:06:27.112Z,21.80
2022-10-28T17:09:03.525Z,25.30
2022-10-28T17:11:36.235Z,19.00
2022-10-28T17:14:08.534Z,22.10
2022-10-28T17:16:43.326Z,21.80
2022-10-28T17:19:15.896Z,24.40
2022-10-28T17:21:48.047Z,21.90
2022-10-28T17:24:22.416Z,20.80
2022-10-28T17:26:54.929Z,21.90
2022-10-28T17:29:27.253Z,18.60
2022-10-28T17:31:59.380Z,23.10
2022-10-28T17:34:31.540Z,29.10
2022-10-28T17:37:03.953Z,23.50
2022-10-28T17:39:36.586Z,18.10
2022-10-28T17:42:08.931Z,22.20
2022-10-28T17:44:41.086Z,25.30
2022-10-28T17:47:13.568Z,25.60
2022-10-28T17:52:16.641Z,24.50
2022-10-28T17:57:19.384Z,19.20
2022-10-28T17:59:51.484Z,25.90
2022-10-28T18:02:23.741Z,28.00
2022-10-28T18:07:26.831Z,29.00
2022-10-28T18:09:59.046Z,30.30
2022-10-28T18:12:31.182Z,38.60
2022-10-28T18:15:03.402Z,24.80
2022-10-28T18:17:35.618Z,30.60
2022-10-28T18:20:09.431Z,33.30
2022-10-28T18:22:41.497Z,33.80
2022-10-28T18:25:13.878Z,40.30
2022-10-28T18:27:45.974Z,40.60
2022-10-28T18:30:18.534Z,32.20
2022-10-28T18:35:21.119Z,43.90
2022-10-28T18:37:53.629Z,35.30
2022-10-28T18:40:25.955Z,28.10
2022-10-28T18:42:57.981Z,32.10
2022-10-28T18:45:30.213Z,36.90
2022-10-28T18:48:02.274Z,38.60
2022-10-28T18:50:34.349Z,31.50
2022-10-28T18:53:06.707Z,32.80
2022-10-28T18:55:38.860Z,36.60
2022-10-28T18:58:14.464Z,38.00
2022-10-28T19:00:46.615Z,40.60
2022-10-28T19:03:23.325Z,38.30
2022-10-28T19:05:55.695Z,39.70
2022-10-28T19:08:27.798Z,37.70
2022-10-28T19:11:00.562Z,34.90
2022-10-28T19:13:35.355Z,38.70
2022-10-28T19:16:08.633Z,35.50
2022-10-28T19:18:40.851Z,36.30
2022-10-28T19:21:15.382Z,45.00
2022-10-28T19:23:47.545Z,37.80
2022-10-28T19:26:19.995Z,36.20
2022-10-28T19:31:24.656Z,43.40
2022-10-28T19:33:57.354Z,31.90
2022-10-28T19:39:00.951Z,39.20
2022-10-28T19:41:33.637Z,38.90
2022-10-28T19:44:06.080Z,34.30
2022-10-28T19:49:09.532Z,31.80
2022-10-28T19:51:42.342Z,35.30
2022-10-28T19:54:15.907Z,45.20
2022-10-28T19:56:49.291Z,34.20
2022-10-28T19:59:21.987Z,41.80
2022-10-28T20:01:54.221Z,37.20
2022-10-28T20:04:27.042Z,44.40
2022-10-28T20:07:00.310Z,39.80
2022-10-28T20:09:32.438Z,33.60
2022-10-28T20:12:04.673Z,40.90
2022-10-28T20:14:36.790Z,41.70
2022-10-28T20:17:08.977Z,35.80
2022-10-28T20:19:41.151Z,37.20
2022-10-28T20:22:13.528Z,40.10
2022-10-28T20:24:45.732Z,39.70
2022-10-28T20:27:17.851Z,36.80
2022-10-28T20:29:50.030Z,36.70
2022-10-28T20:32:24.268Z,44.80
2022-10-28T20:34:57.282Z,41.80
2022-10-28T20:37:29.423Z,46.70
2022-10-28T20:40:06.257Z,46.80
2022-10-28T20:42:39.768Z,46.90
2022-10-28T20:45:12.750Z,46.60
2022-10-28T20:47:44.919Z,47.60
2022-10-28T20:50:17.297Z,50.60
2022-10-28T20:52:49.417Z,54.70
2022-10-28T20:55:21.624Z,42.30
2022-10-28T20:57:53.782Z,44.00
2022-10-28T21:00:26.032Z,45.00
2022-10-28T21:02:59.231Z,42.70
2022-10-28T21:05:33.625Z,47.90
2022-10-28T21:08:05.893Z,48.90
2022-10-28T21:10:38.300Z,47.80
2022-10-28T21:13:10.633Z,45.10
2022-10-28T21:15:45.128Z,45.60
2022-10-28T21:18:17.664Z,47.30
2022-10-28T21:20:49.907Z,46.70
2022-10-28T21:23:22.518Z,57.40
2022-10-28T21:25:59.803Z,51.40
2022-10-28T21:28:33.160Z,53.70
2022-10-28T21:31:06.781Z,52.00
2022-10-28T21:33:39.996Z,57.70
2022-10-28T21:36:15.024Z,53.30
2022-10-28T21:38:47.264Z,56.80
2022-10-28T21:41:21.150Z,55.40
2022-10-28T21:43:54.688Z,60.50
2022-10-28T21:46:26.854Z,52.40
2022-10-28T21:48:58.950Z,57.90
2022-10-28T21:51:31.083Z,52.40
2022-10-28T21:54:04.251Z,54.60
2022-10-28T21:56:36.370Z,60.50
2022-10-28T21:59:08.464Z,54.20
2022-10-28T22:01:40.650Z,58.00
2022-10-28T22:04:13.734Z,55.60
2022-10-28T22:09:23.070Z,58.90
2022-10-28T22:11:55.216Z,60.00
2022-10-28T22:14:27.346Z,56.70
2022-10-28T22:16:59.402Z,49.40
2022-10-28T22:19:31.626Z,49.80
2022-10-28T22:22:03.693Z,52.50
2022-10-28T22:24:35.805Z,57.20
2022-10-28T22:27:07.931Z,56.00
2022-10-28T22:32:10.835Z,57.20
2022-10-28T22:34:43.022Z,51.20
2022-10-28T22:37:15.208Z,49.50
2022-10-28T22:39:47.729Z,49.30
2022-10-28T22:44:50.380Z,47.70
2022-10-28T22:47:22.441Z,53.40
2022-10-28T22:49:54.480Z,43.80
2022-10-28T22:52:26.727Z,44.90
2022-10-28T22:54:58.895Z,43.50
2022-10-28T22:57:30.964Z,43.00
2022-10-28T23:00:03.049Z,42.60
2022-10-28T23:02:35.389Z,38.10
2022-10-28T23:05:09.570Z,44.70
2022-10-28T23:07:41.677Z,47.10
2022-10-28T23:10:14.060Z,43.20
2022-10-28T23:12:46.189Z,44.30
2022-10-28T23:15:18.811Z,50.70
2022-10-28T23:20:23.963Z,47.80
2022-10-28T23:22:57.876Z,47.20
2022-10-28T23:25:30.139Z,50.40
2022-10-28T23:28:02.208Z,50.40
2022-10-28T23:30:35.529Z,50.50
2022-10-28T23:33:08.304Z,45.40
2022-10-28T23:35:41.869Z,46.30
2022-10-28T23:38:16.706Z,50.30
2022-10-28T23:40:57.083Z,52.00
2022-10-28T23:43:29.270Z,47.70
2022-10-28T23:46:01.649Z,51.90
2022-10-28T23:51:26.818Z,55.00
2022-10-28T23:54:04.525Z,46.30
2022-10-28T23:59:07.231Z,47.90
